Time;durP1;ratioP1;P1;durP2;ratioP2;P2;SDS_P1;SDS_P2;PMS_P1;PMS_P2;Temp;Humidity;BMP_temperature;BMP_pressure;BME280_temperature;BME280_humidity;BME280_pressure;Samples;Min_cycle;Max_cycle;Signal;HPM_P1;HPM_P2
2022/01/31 00:01:58;;;;;;;3.60;1.60;;;5.20;99.90;;;;;;4936520;29;20536;-58
2022/01/31 00:04:25;;;;;;;4.10;1.00;;;5.30;99.90;;;;;;4937345;29;20800;-55
2022/01/31 00:06:54;;;;;;;8.10;1.90;;;5.30;99.90;;;;;;4937045;29;20450;-54
2022/01/31 00:09:22;;;;;;;2.93;1.83;;;5.20;99.90;;;;;;4936350;29;20456;-59
2022/01/31 00:11:56;;;;;;;22.40;3.47;;;5.30;99.90;;;;;;4934963;29;20449;-58
2022/01/31 00:14:32;;;;;;;5.83;2.40;;;5.30;99.90;;;;;;4937168;29;20474;-58
2022/01/31 00:16:59;;;;;;;5.53;1.57;;;5.20;99.90;;;;;;4937183;29;20433;-55
2022/01/31 00:19:26;;;;;;;13.83;1.70;;;5.20;99.90;;;;;;4938255;29;20482;-51
2022/01/31 00:21:54;;;;;;;5.20;1.83;;;5.10;99.90;;;;;;4937835;29;20470;-54
2022/01/31 00:24:21;;;;;;;17.30;2.90;;;5.10;99.90;;;;;;4938539;29;20430;-57
2022/01/31 00:26:48;;;;;;;15.77;1.63;;;5.00;99.90;;;;;;4938568;29;20508;-58
2022/01/31 00:29:15;;;;;;;7.47;1.97;;;5.00;99.90;;;;;;4938730;29;20502;-51
2022/01/31 00:31:41;;;;;;;4.50;1.00;;;5.00;99.90;;;;;;4937910;29;20549;-54
2022/01/31 00:34:08;;;;;;;3.33;1.57;;;5.00;99.90;;;;;;4937028;29;20470;-51
2022/01/31 00:36:35;;;;;;;12.20;2.23;;;5.00;99.90;;;;;;4937659;29;20490;-55
2022/01/31 00:39:05;;;;;;;7.70;1.70;;;5.00;99.90;;;;;;4937432;29;20454;-57
2022/01/31 00:41:33;;;;;;;10.70;1.90;;;5.00;99.90;;;;;;4937862;29;20478;-54
2022/01/31 00:44:14;;;;;;;13.83;2.50;;;4.90;99.90;;;;;;4936809;29;20844;-53
2022/01/31 00:46:50;;;;;;;14.30;2.70;;;4.90;99.90;;;;;;4936910;29;20534;-58
2022/01/31 00:49:27;;;;;;;5.53;1.70;;;4.90;99.90;;;;;;4937157;29;20480;-50
2022/01/31 00:51:54;;;;;;;12.20;2.77;;;4.90;99.90;;;;;;4937989;29;20475;-45
2022/01/31 00:54:22;;;;;;;6.97;2.23;;;4.90;99.90;;;;;;4937961;29;20473;-55
2022/01/31 00:56:49;;;;;;;7.07;1.87;;;4.80;99.90;;;;;;4937607;29;20533;-58
2022/01/31 00:59:16;;;;;;;18.53;2.60;;;4.80;99.90;;;;;;4937485;29;20487;-58
2022/01/31 01:01:45;;;;;;;11.93;2.50;;;4.80;99.90;;;;;;4937299;29;20480;-56
2022/01/31 01:04:15;;;;;;;3.70;2.10;;;4.80;99.90;;;;;;4937583;29;20667;-56
2022/01/31 01:06:42;;;;;;;3.23;1.97;;;4.80;99.90;;;;;;4938009;29;20520;-59
2022/01/31 01:09:09;;;;;;;4.57;2.00;;;4.70;99.90;;;;;;4936565;29;20486;-59
2022/01/31 01:11:36;;;;;;;4.53;1.70;;;4.70;99.90;;;;;;4937996;29;20450;-57
2022/01/31 01:14:04;;;;;;;11.23;2.03;;;4.70;99.90;;;;;;4938761;29;20481;-48
2022/01/31 01:16:31;;;;;;;9.67;1.73;;;4.60;99.90;;;;;;4939273;29;20478;-59
2022/01/31 01:18:59;;;;;;;14.63;2.73;;;4.50;99.90;;;;;;4939559;29;20458;-59
2022/01/31 01:21:26;;;;;;;16.73;2.97;;;4.50;99.90;;;;;;4938305;29;20465;-56
2022/01/31 01:23:53;;;;;;;5.37;1.50;;;4.50;99.90;;;;;;4938049;29;20892;-59
2022/01/31 01:26:22;;;;;;;14.93;2.20;;;4.40;99.90;;;;;;4937603;29;20498;-55
2022/01/31 01:28:55;;;;;;;33.83;4.20;;;4.40;99.90;;;;;;4937458;29;20489;-56
2022/01/31 01:31:21;;;;;;;9.27;3.43;;;4.40;99.90;;;;;;4936673;29;20847;-59
2022/01/31 01:33:48;;;;;;;9.50;1.33;;;4.40;99.90;;;;;;4937451;29;20501;-56
2022/01/31 01:36:19;;;;;;;5.60;1.80;;;4.40;99.90;;;;;;4937938;29;20446;-52
2022/01/31 01:38:46;;;;;;;14.70;2.77;;;4.40;99.90;;;;;;4937272;29;20454;-58
2022/01/31 01:41:12;;;;;;;11.40;4.13;;;4.40;99.90;;;;;;4936964;29;20490;-59
2022/01/31 01:43:41;;;;;;;9.93;2.87;;;4.50;99.90;;;;;;4937179;29;20482;-58
2022/01/31 01:46:09;;;;;;;11.73;1.70;;;4.50;99.90;;;;;;4936974;29;20502;-52
2022/01/31 01:48:37;;;;;;;11.80;2.60;;;4.50;99.90;;;;;;4935962;29;20514;-57
2022/01/31 01:51:04;;;;;;;4.07;3.57;;;4.50;99.90;;;;;;4936131;29;20451;-55
2022/01/31 01:53:31;;;;;;;4.27;2.03;;;4.60;99.90;;;;;;4936363;29;20534;-59
2022/01/31 01:55:58;;;;;;;11.43;1.93;;;4.60;99.90;;;;;;4936109;29;20442;-59
2022/01/31 01:58:28;;;;;;;10.60;1.50;;;4.60;99.90;;;;;;4936861;29;20459;-56
2022/01/31 02:01:01;;;;;;;10.17;1.73;;;4.60;99.90;;;;;;4935855;29;20545;-59
2022/01/31 02:03:31;;;;;;;10.80;2.40;;;4.60;99.90;;;;;;4937071;29;20478;-55
2022/01/31 02:05:58;;;;;;;6.90;1.80;;;4.60;99.90;;;;;;4936590;29;20470;-58
2022/01/31 02:08:27;;;;;;;7.00;2.03;;;4.60;99.90;;;;;;4935597;29;20484;-59
2022/01/31 02:10:54;;;;;;;14.13;2.30;;;4.60;99.90;;;;;;4935972;29;20453;-56
2022/01/31 02:13:21;;;;;;;3.80;2.00;;;4.60;99.90;;;;;;4936298;29;20511;-56
2022/01/31 02:15:51;;;;;;;10.63;2.17;;;4.60;99.90;;;;;;4936092;29;20534;-53
2022/01/31 02:18:21;;;;;;;15.63;2.50;;;4.60;99.90;;;;;;4935900;29;20490;-58
2022/01/31 02:20:49;;;;;;;15.90;2.43;;;4.60;99.90;;;;;;4935934;29;20465;-55
2022/01/31 02:23:17;;;;;;;6.40;3.20;;;4.70;99.90;;;;;;4935111;29;20454;-52
2022/01/31 02:25:55;;;;;;;12.90;2.50;;;4.70;99.90;;;;;;4935823;29;20493;-55
2022/01/31 02:28:24;;;;;;;21.47;2.40;;;4.70;99.90;;;;;;4936063;29;20477;-54
2022/01/31 02:30:57;;;;;;;12.43;2.73;;;4.70;99.90;;;;;;4935665;29;20482;-56
2022/01/31 02:33:25;;;;;;;12.53;3.20;;;4.70;99.90;;;;;;4934201;29;20460;-56
2022/01/31 02:35:56;;;;;;;14.53;3.00;;;4.70;99.90;;;;;;4935554;29;20442;-55
2022/01/31 02:38:27;;;;;;;13.20;2.80;;;4.70;99.90;;;;;;4937251;29;20595;-56
2022/01/31 02:40:54;;;;;;;4.40;1.70;;;4.70;99.90;;;;;;4936778;29;20502;-54
2022/01/31 02:43:22;;;;;;;3.33;1.23;;;4.70;99.90;;;;;;4936140;29;20501;-53
2022/01/31 02:45:49;;;;;;;10.97;2.97;;;4.60;99.90;;;;;;4936729;29;20464;-55
2022/01/31 02:48:18;;;;;;;11.53;2.67;;;4.70;99.90;;;;;;4936292;29;20518;-54
2022/01/31 02:50:45;;;;;;;13.33;3.37;;;4.70;99.90;;;;;;4934883;29;20458;-59
2022/01/31 02:53:22;;;;;;;5.07;2.07;;;4.70;99.90;;;;;;4934607;29;20458;-55
2022/01/31 02:55:50;;;;;;;19.47;3.27;;;4.70;99.90;;;;;;4934452;29;20568;-56
2022/01/31 02:58:17;;;;;;;5.80;1.80;;;4.70;99.90;;;;;;4934357;29;20442;-52
2022/01/31 03:00:45;;;;;;;8.77;1.90;;;4.70;99.90;;;;;;4935436;29;20474;-52
2022/01/31 03:03:11;;;;;;;24.87;5.37;;;4.70;99.90;;;;;;4935068;29;20486;-58
2022/01/31 03:05:38;;;;;;;14.60;3.47;;;4.70;99.90;;;;;;4935045;29;20438;-54
2022/01/31 03:08:06;;;;;;;5.70;1.67;;;4.70;99.90;;;;;;4934588;29;20458;-56
2022/01/31 03:10:34;;;;;;;7.40;2.67;;;4.70;99.90;;;;;;4935547;29;20454;-57
2022/01/31 03:13:03;;;;;;;31.47;4.23;;;4.70;99.90;;;;;;4936094;29;20473;-56
2022/01/31 03:15:29;;;;;;;8.13;2.40;;;4.70;99.90;;;;;;4935239;29;20490;-51
2022/01/31 03:17:57;;;;;;;11.30;2.10;;;4.70;99.90;;;;;;4934713;29;20469;-54
2022/01/31 03:20:24;;;;;;;34.60;3.20;;;4.70;99.90;;;;;;4933955;29;20529;-56
2022/01/31 03:22:52;;;;;;;5.10;2.10;;;4.60;99.90;;;;;;4934960;29;20486;-54
2022/01/31 03:25:19;;;;;;;17.97;3.27;;;4.60;99.90;;;;;;4934952;29;20863;-55
2022/01/31 03:27:49;;;;;;;10.67;2.13;;;4.70;99.90;;;;;;4934450;29;20450;-59
2022/01/31 03:30:17;;;;;;;3.10;1.40;;;4.70;99.90;;;;;;4934384;29;20514;-55
2022/01/31 03:32:45;;;;;;;2.00;1.37;;;4.70;99.90;;;;;;4934573;29;20462;-57
2022/01/31 03:35:12;;;;;;;6.00;1.93;;;4.70;99.90;;;;;;4935491;29;20451;-59
2022/01/31 03:37:39;;;;;;;12.33;1.93;;;4.70;99.90;;;;;;4934281;29;20486;-54
2022/01/31 03:40:08;;;;;;;18.03;3.53;;;4.60;99.90;;;;;;4934226;29;20454;-59
2022/01/31 03:42:35;;;;;;;3.80;1.20;;;4.70;99.90;;;;;;4933579;29;20450;-58
2022/01/31 03:45:03;;;;;;;10.53;3.13;;;4.60;99.90;;;;;;4934893;29;20426;-53
2022/01/31 03:47:33;;;;;;;8.80;2.13;;;4.70;99.90;;;;;;4934170;29;20450;-58
2022/01/31 03:50:00;;;;;;;7.97;2.67;;;4.70;99.90;;;;;;4934011;29;20947;-59
2022/01/31 03:52:27;;;;;;;6.37;1.90;;;4.70;99.90;;;;;;4934125;29;20933;-57
2022/01/31 03:54:56;;;;;;;15.30;3.13;;;4.60;99.90;;;;;;4934430;29;20446;-56
2022/01/31 03:57:22;;;;;;;12.63;1.90;;;4.60;99.90;;;;;;4934363;29;20468;-62
2022/01/31 03:59:49;;;;;;;15.33;3.67;;;4.60;99.90;;;;;;4933792;29;20446;-53
2022/01/31 04:02:17;;;;;;;7.40;2.37;;;4.60;99.90;;;;;;4934205;29;20473;-55
2022/01/31 04:04:44;;;;;;;9.73;2.53;;;4.60;99.90;;;;;;4933653;29;20454;-56
2022/01/31 04:07:13;;;;;;;19.80;2.53;;;4.60;99.90;;;;;;4933806;29;20456;-57
2022/01/31 04:09:40;;;;;;;7.70;1.77;;;4.60;99.90;;;;;;4933210;29;20506;-59
2022/01/31 04:12:07;;;;;;;4.90;2.37;;;4.60;99.90;;;;;;4933500;29;20442;-56
2022/01/31 04:14:37;;;;;;;13.57;2.20;;;4.60;99.90;;;;;;4933673;29;20480;-59
2022/01/31 04:17:08;;;;;;;14.37;2.90;;;4.60;99.90;;;;;;4934019;29;20493;-54
2022/01/31 04:19:37;;;;;;;10.50;1.60;;;4.60;99.90;;;;;;4933640;29;20469;-58
2022/01/31 04:22:07;;;;;;;8.10;2.50;;;4.60;99.90;;;;;;4933949;29;20438;-57
2022/01/31 04:24:35;;;;;;;15.97;2.20;;;4.60;99.90;;;;;;4933425;29;20474;-53
2022/01/31 04:27:05;;;;;;;15.23;2.60;;;4.50;99.90;;;;;;4934231;29;20434;-58
2022/01/31 04:29:34;;;;;;;12.83;3.43;;;4.50;99.90;;;;;;4933746;29;20469;-58
2022/01/31 04:32:01;;;;;;;20.17;4.17;;;4.60;99.90;;;;;;4932067;29;20812;-55
2022/01/31 04:34:29;;;;;;;5.97;2.23;;;4.60;99.90;;;;;;4931491;29;20522;-55
2022/01/31 04:36:57;;;;;;;13.83;2.80;;;4.60;99.90;;;;;;4930564;29;20503;-54
2022/01/31 04:39:24;;;;;;;16.30;2.80;;;4.70;99.90;;;;;;4931066;29;20469;-58
2022/01/31 04:41:51;;;;;;;12.60;2.50;;;4.70;99.90;;;;;;4931188;29;20457;-55
2022/01/31 04:44:18;;;;;;;8.23;2.60;;;4.70;99.90;;;;;;4932963;29;20470;-59
2022/01/31 04:46:51;;;;;;;21.10;2.90;;;4.70;99.90;;;;;;4935355;29;20457;-57
2022/01/31 04:49:19;;;;;;;16.70;4.23;;;4.80;99.90;;;;;;4935019;29;20500;-59
2022/01/31 04:51:46;;;;;;;9.57;3.37;;;4.70;99.90;;;;;;4933968;29;20450;-53
2022/01/31 04:54:14;;;;;;;11.97;2.73;;;4.80;99.90;;;;;;4934693;29;20461;-58
2022/01/31 04:56:42;;;;;;;10.63;3.40;;;4.80;99.90;;;;;;4933157;29;20486;-58
2022/01/31 04:59:09;;;;;;;12.37;3.47;;;4.80;99.90;;;;;;4933176;29;20454;-58
2022/01/31 05:01:38;;;;;;;9.07;2.10;;;4.80;99.90;;;;;;4933387;29;20466;-56
2022/01/31 05:04:05;;;;;;;3.20;2.10;;;4.80;99.90;;;;;;4934327;29;20454;-56
2022/01/31 05:06:35;;;;;;;17.20;2.37;;;4.80;99.90;;;;;;4934402;29;20509;-57
2022/01/31 05:09:02;;;;;;;28.13;2.80;;;4.80;99.90;;;;;;4933979;29;20951;-53
2022/01/31 05:11:31;;;;;;;9.53;2.53;;;4.80;99.90;;;;;;4934655;29;20480;-56
2022/01/31 05:13:57;;;;;;;18.60;5.10;;;4.80;99.90;;;;;;4935390;29;20494;-59
2022/01/31 05:16:24;;;;;;;12.03;2.77;;;4.80;99.90;;;;;;4935925;29;20477;-57
2022/01/31 05:18:51;;;;;;;11.60;2.20;;;4.90;99.90;;;;;;4940358;29;20454;-57
2022/01/31 05:21:17;;;;;;;14.17;2.93;;;4.80;99.90;;;;;;4938141;29;20505;-59
2022/01/31 05:23:46;;;;;;;8.07;2.13;;;4.80;99.90;;;;;;4941916;29;20478;-59
2022/01/31 05:26:13;;;;;;;11.10;2.70;;;4.80;99.90;;;;;;4946639;29;20470;-58
2022/01/31 05:28:41;;;;;;;6.93;1.60;;;4.70;99.90;;;;;;4939297;29;20446;-56
2022/01/31 05:31:08;;;;;;;19.87;2.80;;;4.70;99.90;;;;;;4934698;29;20513;-55
2022/01/31 05:33:35;;;;;;;9.00;2.10;;;4.70;99.90;;;;;;4934100;29;20517;-59
2022/01/31 05:36:01;;;;;;;11.00;2.70;;;4.80;99.90;;;;;;4933747;29;20522;-58
2022/01/31 05:38:28;;;;;;;23.67;3.07;;;4.80;99.90;;;;;;4941426;29;20446;-59
2022/01/31 05:40:55;;;;;;;14.50;2.20;;;4.80;99.90;;;;;;4933341;29;20525;-58
2022/01/31 05:43:21;;;;;;;15.03;2.40;;;4.80;99.90;;;;;;4934131;29;20466;-59
2022/01/31 05:45:49;;;;;;;22.13;4.00;;;4.80;99.90;;;;;;4948661;29;20449;-59
2022/01/31 05:48:19;;;;;;;7.90;2.30;;;4.80;99.90;;;;;;4952912;29;20505;-55
2022/01/31 05:50:47;;;;;;;14.17;2.50;;;4.80;99.90;;;;;;4942116;29;20557;-59
2022/01/31 05:53:14;;;;;;;9.57;2.43;;;4.80;99.90;;;;;;4943004;29;20473;-59
2022/01/31 05:55:44;;;;;;;12.10;3.20;;;4.70;99.90;;;;;;4943683;29;20505;-53
2022/01/31 05:58:10;;;;;;;13.30;2.83;;;4.70;99.90;;;;;;4942114;29;20450;-59
2022/01/31 06:00:38;;;;;;;14.03;2.20;;;4.70;99.90;;;;;;4942163;29;20469;-59
2022/01/31 06:03:08;;;;;;;10.13;2.63;;;4.70;99.90;;;;;;4948199;29;20441;-59
2022/01/31 06:05:36;;;;;;;6.60;2.40;;;4.60;99.90;;;;;;4952453;29;20527;-59
2022/01/31 06:08:03;;;;;;;8.50;2.20;;;4.60;99.90;;;;;;4953046;29;20512;-57
2022/01/31 06:10:32;;;;;;;9.40;3.30;;;4.60;99.90;;;;;;4952407;29;20521;-56
2022/01/31 06:12:59;;;;;;;8.70;2.23;;;4.60;99.90;;;;;;4953775;29;20512;-57
2022/01/31 06:15:25;;;;;;;11.80;2.80;;;4.50;99.90;;;;;;4953935;29;20484;-57
2022/01/31 06:17:53;;;;;;;11.37;1.77;;;4.40;99.90;;;;;;4953887;29;20433;-58
2022/01/31 06:20:21;;;;;;;14.37;2.53;;;4.40;99.90;;;;;;4953657;29;20476;-54
2022/01/31 06:22:50;;;;;;;13.00;3.17;;;4.40;99.90;;;;;;4953846;29;20453;-59
2022/01/31 06:25:17;;;;;;;9.90;2.70;;;4.40;99.90;;;;;;4951307;29;20452;-60
2022/01/31 06:27:44;;;;;;;13.77;4.70;;;4.40;99.90;;;;;;4934268;29;20470;-58
2022/01/31 06:30:11;;;;;;;9.43;2.40;;;4.40;99.90;;;;;;4933492;29;20802;-59
2022/01/31 06:32:38;;;;;;;5.73;3.00;;;4.40;99.90;;;;;;4933484;29;20452;-56
2022/01/31 06:35:06;;;;;;;11.13;3.40;;;4.40;99.90;;;;;;4933121;29;20450;-56
2022/01/31 06:37:34;;;;;;;8.90;2.13;;;4.50;99.90;;;;;;4933303;29;20490;-56
2022/01/31 06:40:00;;;;;;;18.53;2.30;;;4.50;99.90;;;;;;4933947;29;20446;-59
2022/01/31 06:42:27;;;;;;;4.23;2.00;;;4.40;99.90;;;;;;4934272;29;20521;-56
2022/01/31 06:44:54;;;;;;;7.40;2.63;;;4.40;99.90;;;;;;4934941;29;21033;-57
2022/01/31 06:47:23;;;;;;;3.93;2.20;;;4.40;99.90;;;;;;4933745;29;20908;-57
2022/01/31 06:49:51;;;;;;;15.97;2.60;;;4.40;99.90;;;;;;4934576;29;20470;-56
2022/01/31 06:52:18;;;;;;;9.27;4.53;;;4.40;99.90;;;;;;4933140;29;20465;-59
2022/01/31 06:54:50;;;;;;;12.13;3.03;;;4.50;99.90;;;;;;4933569;29;20477;-55
2022/01/31 06:57:17;;;;;;;12.57;3.20;;;4.50;99.90;;;;;;4933402;29;20777;-55
2022/01/31 06:59:43;;;;;;;9.80;2.10;;;4.50;99.90;;;;;;4932462;29;20473;-56
2022/01/31 07:02:13;;;;;;;5.70;3.17;;;4.50;99.90;;;;;;4932226;29;20446;-56
2022/01/31 07:04:40;;;;;;;23.00;4.67;;;4.50;99.90;;;;;;4931104;29;20441;-57
2022/01/31 07:07:09;;;;;;;15.97;3.90;;;4.60;99.90;;;;;;4945705;29;20453;-57
2022/01/31 07:09:36;;;;;;;10.63;3.00;;;4.60;99.90;;;;;;4940378;29;20492;-54
2022/01/31 07:12:09;;;;;;;15.43;2.80;;;4.60;99.90;;;;;;4939605;29;20446;-56
2022/01/31 07:14:36;;;;;;;22.00;3.00;;;4.50;99.90;;;;;;4938970;29;20470;-58
2022/01/31 07:17:06;;;;;;;6.20;2.40;;;4.50;99.90;;;;;;4941852;29;20445;-58
2022/01/31 07:19:35;;;;;;;8.73;2.43;;;4.50;99.90;;;;;;4938539;29;20453;-57
2022/01/31 07:22:04;;;;;;;12.10;2.70;;;4.50;99.90;;;;;;4935754;29;20456;-57
2022/01/31 07:24:43;;;;;;;29.30;3.57;;;4.50;99.90;;;;;;4931004;29;20509;-54
2022/01/31 07:27:12;;;;;;;10.50;2.37;;;4.50;99.90;;;;;;4930401;29;20442;-56
2022/01/31 07:29:43;;;;;;;6.87;2.33;;;4.40;99.90;;;;;;4937656;29;20509;-56
2022/01/31 07:32:12;;;;;;;8.97;3.60;;;4.40;99.90;;;;;;4952595;29;20962;-57
2022/01/31 07:34:41;;;;;;;23.97;3.87;;;4.40;99.90;;;;;;4951601;29;20460;-51
2022/01/31 07:37:10;;;;;;;32.60;3.43;;;4.40;99.90;;;;;;4942956;29;20520;-52
2022/01/31 07:39:40;;;;;;;9.40;2.80;;;4.40;99.90;;;;;;4950238;29;20477;-54
2022/01/31 07:42:07;;;;;;;17.57;2.67;;;4.40;99.90;;;;;;4955459;29;20481;-46
2022/01/31 07:44:36;;;;;;;12.33;2.23;;;4.40;99.90;;;;;;4948620;29;20557;-51
2022/01/31 07:47:03;;;;;;;9.20;1.87;;;4.40;99.90;;;;;;4941794;29;20494;-55
2022/01/31 07:49:30;;;;;;;9.50;3.03;;;4.40;99.90;;;;;;4938926;29;20450;-51
2022/01/31 07:51:58;;;;;;;17.83;2.83;;;4.40;99.90;;;;;;4938760;29;20456;-51
2022/01/31 07:54:28;;;;;;;9.40;2.47;;;4.30;99.90;;;;;;4938953;29;20457;-54
2022/01/31 07:56:58;;;;;;;8.10;3.23;;;4.30;99.90;;;;;;4943259;29;20442;-53
2022/01/31 07:59:27;;;;;;;19.80;4.30;;;4.30;99.90;;;;;;4941784;29;20453;-50
2022/01/31 08:01:55;;;;;;;7.63;2.83;;;4.30;99.90;;;;;;4958262;29;20433;-54
2022/01/31 08:04:25;;;;;;;11.33;3.00;;;4.30;99.90;;;;;;4948056;29;20454;-52
2022/01/31 08:06:51;;;;;;;18.47;4.70;;;4.20;99.90;;;;;;4951005;29;20548;-55
2022/01/31 08:09:21;;;;;;;17.90;3.60;;;4.20;99.90;;;;;;4956603;29;20457;-57
2022/01/31 08:11:48;;;;;;;12.90;4.73;;;4.20;99.90;;;;;;4957376;29;20457;-54
2022/01/31 08:14:17;;;;;;;15.60;3.50;;;4.30;99.90;;;;;;4957345;29;20448;-56
2022/01/31 08:16:44;;;;;;;12.03;3.60;;;4.30;99.90;;;;;;4957622;29;20468;-55
2022/01/31 08:19:12;;;;;;;12.80;2.37;;;4.40;99.90;;;;;;4959863;29;20433;-52
2022/01/31 08:21:39;;;;;;;9.30;3.23;;;4.40;99.90;;;;;;4961396;29;20448;-53
2022/01/31 08:24:07;;;;;;;9.27;2.73;;;4.50;99.90;;;;;;4960843;29;20465;-50
2022/01/31 08:26:34;;;;;;;16.87;3.67;;;4.50;99.90;;;;;;4961111;29;20441;-58
2022/01/31 08:29:18;;;;;;;20.13;3.93;;;4.50;99.90;;;;;;4961039;29;20484;-54
2022/01/31 08:31:47;;;;;;;9.73;3.13;;;4.50;99.90;;;;;;4960694;29;20500;-49
2022/01/31 08:34:23;;;;;;;16.97;3.20;;;4.60;99.90;;;;;;4960628;29;20452;-55
2022/01/31 08:36:51;;;;;;;6.10;2.80;;;4.60;99.90;;;;;;4960653;29;20489;-51
2022/01/31 08:39:19;;;;;;;12.63;2.13;;;4.60;99.90;;;;;;4960927;29;20456;-48
2022/01/31 08:41:49;;;;;;;16.13;2.73;;;4.70;99.90;;;;;;4960389;29;20449;-44
2022/01/31 08:44:22;;;;;;;5.13;3.10;;;4.70;99.90;;;;;;4960705;29;20437;-50
2022/01/31 08:46:50;;;;;;;6.57;3.80;;;4.70;99.90;;;;;;4960089;29;20481;-52
2022/01/31 08:49:19;;;;;;;12.33;4.43;;;4.70;99.90;;;;;;4960580;29;20898;-54
2022/01/31 08:51:46;;;;;;;23.23;4.33;;;4.70;99.90;;;;;;4960458;29;20528;-54
2022/01/31 08:54:15;;;;;;;10.23;3.57;;;4.80;99.90;;;;;;4960413;29;20440;-51
2022/01/31 08:56:49;;;;;;;9.30;4.67;;;4.80;99.90;;;;;;4947520;29;20442;-47
2022/01/31 08:59:19;;;;;;;10.70;3.37;;;4.80;99.90;;;;;;4941952;29;20442;-56
2022/01/31 09:02:02;;;;;;;8.57;2.70;;;4.90;99.90;;;;;;4941636;29;20456;-58
2022/01/31 09:04:35;;;;;;;11.20;2.80;;;5.00;99.90;;;;;;4933734;29;20449;-59
2022/01/31 09:07:04;;;;;;;10.50;3.17;;;5.00;99.90;;;;;;4930094;29;20442;-59
2022/01/31 09:09:31;;;;;;;18.87;4.83;;;5.00;99.90;;;;;;4929445;29;20930;-60
2022/01/31 09:12:02;;;;;;;15.67;3.67;;;5.00;99.90;;;;;;4925759;29;20482;-59
2022/01/31 09:14:29;;;;;;;13.23;3.73;;;5.00;99.90;;;;;;4920430;29;20470;-56
2022/01/31 09:16:57;;;;;;;16.20;3.30;;;5.00;99.90;;;;;;4920849;29;20477;-56
2022/01/31 09:19:25;;;;;;;15.17;4.80;;;5.10;99.90;;;;;;4924252;29;20452;-58
2022/01/31 09:21:53;;;;;;;14.93;3.10;;;5.00;99.90;;;;;;4921455;29;20469;-62
2022/01/31 09:24:20;;;;;;;15.00;3.73;;;5.00;99.90;;;;;;4920984;29;20450;-58
2022/01/31 09:26:47;;;;;;;14.53;3.80;;;5.00;99.90;;;;;;4920566;29;20474;-53
2022/01/31 09:29:16;;;;;;;19.00;5.23;;;5.00;99.90;;;;;;4920485;29;20461;-55
2022/01/31 09:31:43;;;;;;;13.53;3.20;;;5.00;99.90;;;;;;4920857;29;20549;-59
2022/01/31 09:34:10;;;;;;;6.77;3.30;;;5.00;99.90;;;;;;4920726;29;20453;-54
2022/01/31 09:36:37;;;;;;;26.23;5.03;;;5.00;99.90;;;;;;4920501;29;20460;-59
2022/01/31 09:39:07;;;;;;;10.73;2.87;;;5.00;99.90;;;;;;4920267;29;20843;-54
2022/01/31 09:41:35;;;;;;;11.73;2.97;;;5.00;99.90;;;;;;4920613;29;20477;-60
2022/01/31 09:44:27;;;;;;;7.53;3.13;;;5.10;99.90;;;;;;4921203;29;20494;-70
2022/01/31 09:47:06;;;;;;;16.40;4.20;;;5.20;99.90;;;;;;4920590;29;20469;-56
2022/01/31 09:49:33;;;;;;;20.20;4.00;;;5.20;99.90;;;;;;4919948;29;20874;-60
2022/01/31 09:52:00;;;;;;;8.90;4.03;;;5.30;99.90;;;;;;4920535;29;20496;-61
2022/01/31 09:54:28;;;;;;;16.30;3.60;;;5.30;99.90;;;;;;4930222;29;20469;-58
2022/01/31 09:56:58;;;;;;;22.33;5.10;;;5.40;99.90;;;;;;4931188;29;20600;-58
2022/01/31 09:59:24;;;;;;;12.10;4.23;;;5.40;99.90;;;;;;4923596;29;20508;-60
2022/01/31 10:01:54;;;;;;;8.00;3.17;;;5.40;99.90;;;;;;4939226;29;20440;-62
2022/01/31 10:04:23;;;;;;;7.80;4.43;;;5.50;99.90;;;;;;4942433;29;20461;-59
2022/01/31 10:06:51;;;;;;;18.87;4.77;;;5.50;99.90;;;;;;4940643;29;20484;-56
2022/01/31 10:09:20;;;;;;;19.50;2.37;;;5.60;99.90;;;;;;4939971;29;20454;-54
2022/01/31 10:11:51;;;;;;;11.50;3.30;;;5.60;99.90;;;;;;4937158;29;20556;-55
2022/01/31 10:17:12;;;;;;;9.27;2.40;;;5.60;99.90;;;;;;4927381;29;20468;-59
2022/01/31 10:19:41;;;;;;;11.30;3.20;;;5.70;99.90;;;;;;4940164;29;20470;-59
2022/01/31 10:22:10;;;;;;;12.23;3.00;;;5.80;99.90;;;;;;4940002;29;20473;-57
2022/01/31 10:24:38;;;;;;;8.83;3.20;;;5.80;99.90;;;;;;4940515;29;20454;-54
2022/01/31 10:27:14;;;;;;;11.53;3.97;;;5.80;99.90;;;;;;4943510;29;20527;-62
2022/01/31 10:29:41;;;;;;;7.57;3.40;;;5.90;99.90;;;;;;4941749;29;20894;-59
2022/01/31 10:32:11;;;;;;;12.90;4.20;;;6.00;99.90;;;;;;4941778;29;20482;-59
2022/01/31 10:34:41;;;;;;;25.23;4.67;;;6.00;99.90;;;;;;4942375;29;20473;-60
2022/01/31 10:37:11;;;;;;;8.53;3.10;;;5.90;99.90;;;;;;4942147;29;20467;-56
2022/01/31 10:45:32;;;;;;;7.23;3.37;;;5.80;99.90;;;;;;4940984;29;20463;-58
2022/01/31 10:53:58;;;;;;;15.93;3.90;;;5.70;99.90;;;;;;4945377;29;20983;-58
2022/01/31 10:56:25;;;;;;;13.43;2.97;;;5.70;99.90;;;;;;4941404;29;20543;-53
2022/01/31 10:58:59;;;;;;;11.00;4.17;;;5.60;99.90;;;;;;4938585;29;20462;-59
2022/01/31 11:01:27;;;;;;;18.50;3.23;;;5.70;99.90;;;;;;4941269;29;20441;-58
2022/01/31 11:03:55;;;;;;;5.27;3.27;;;5.70;99.90;;;;;;4936712;29;20434;-59
2022/01/31 11:06:23;;;;;;;6.60;2.17;;;5.70;99.90;;;;;;4938143;29;20926;-59
2022/01/31 11:08:50;;;;;;;10.80;3.60;;;5.70;99.90;;;;;;4940785;29;20477;-51
2022/01/31 11:11:18;;;;;;;18.43;3.80;;;5.80;99.90;;;;;;4939951;29;20488;-50
2022/01/31 11:13:45;;;;;;;11.23;3.50;;;5.80;99.90;;;;;;4939774;29;20456;-53
2022/01/31 11:16:13;;;;;;;6.73;2.50;;;5.90;99.90;;;;;;4939822;29;20449;-58
2022/01/31 11:18:43;;;;;;;17.97;3.80;;;6.00;99.90;;;;;;4938265;29;20445;-54
2022/01/31 11:21:11;;;;;;;10.97;3.57;;;6.10;99.90;;;;;;4937355;29;20978;-57
2022/01/31 11:23:43;;;;;;;12.67;3.10;;;6.20;99.90;;;;;;4937607;29;20521;-60
2022/01/31 11:26:12;;;;;;;4.97;2.80;;;6.30;99.90;;;;;;4937600;29;20455;-55
2022/01/31 11:28:42;;;;;;;10.53;3.90;;;6.40;99.90;;;;;;4938462;29;20457;-60
2022/01/31 11:31:09;;;;;;;9.17;4.43;;;6.40;99.90;;;;;;4937534;29;20497;-52
2022/01/31 11:33:37;;;;;;;6.23;2.10;;;6.50;99.90;;;;;;4937007;29;20517;-52
2022/01/31 11:36:04;;;;;;;8.10;2.47;;;6.50;99.90;;;;;;4936942;29;20883;-55
2022/01/31 11:38:32;;;;;;;8.73;2.40;;;6.60;99.90;;;;;;4937331;29;20457;-57
2022/01/31 11:41:02;;;;;;;5.37;2.30;;;6.60;99.90;;;;;;4937880;29;20480;-55
2022/01/31 11:43:31;;;;;;;9.33;3.53;;;6.60;99.90;;;;;;4938138;29;20491;-57
2022/01/31 11:46:00;;;;;;;18.57;3.00;;;6.70;99.90;;;;;;4937201;29;21130;-58
2022/01/31 11:48:29;;;;;;;22.73;4.03;;;6.60;99.90;;;;;;4937236;29;20516;-57
2022/01/31 11:50:58;;;;;;;12.23;3.07;;;6.70;99.90;;;;;;4937925;29;20492;-54
2022/01/31 11:53:30;;;;;;;13.40;2.73;;;6.80;99.90;;;;;;4938441;29;20536;-57
2022/01/31 11:56:07;;;;;;;10.83;3.33;;;6.90;99.90;;;;;;4940941;29;20437;-57
2022/01/31 11:58:36;;;;;;;14.33;3.10;;;6.90;99.90;;;;;;4941261;29;20444;-56
2022/01/31 12:01:06;;;;;;;12.47;3.77;;;6.90;99.90;;;;;;4945257;29;20469;-55
2022/01/31 12:03:36;;;;;;;8.30;3.40;;;6.90;99.90;;;;;;4961595;29;20452;-46
2022/01/31 12:06:10;;;;;;;8.77;2.97;;;7.00;99.90;;;;;;4961133;29;20446;-55
2022/01/31 12:08:41;;;;;;;5.70;2.83;;;7.00;99.90;;;;;;4961235;29;20433;-53
2022/01/31 12:11:14;;;;;;;11.80;3.17;;;7.00;99.90;;;;;;4961086;29;20590;-53
2022/01/31 12:13:49;;;;;;;9.60;3.20;;;7.10;99.90;;;;;;4961303;29;20484;-50
2022/01/31 12:16:45;;;;;;;6.40;3.00;;;7.10;99.90;;;;;;4961340;29;20434;-56
2022/01/31 12:19:47;;;;;;;9.13;3.87;;;7.10;99.90;;;;;;4960964;29;20439;-42
2022/01/31 12:22:41;;;;;;;6.20;3.00;;;7.00;99.90;;;;;;4960444;29;20436;-57
2022/01/31 12:25:23;;;;;;;8.57;2.73;;;7.00;99.90;;;;;;4960077;29;20524;-51
2022/01/31 12:27:51;;;;;;;12.70;3.13;;;7.10;99.90;;;;;;4960935;29;20477;-51
2022/01/31 12:30:31;;;;;;;13.43;4.50;;;7.10;99.90;;;;;;4960596;29;20438;-48
2022/01/31 12:33:00;;;;;;;15.80;5.10;;;7.10;99.90;;;;;;4959850;29;20477;-49
2022/01/31 12:35:38;;;;;;;11.80;3.33;;;7.10;99.90;;;;;;4960166;29;20460;-58
2022/01/31 12:38:09;;;;;;;16.40;4.97;;;7.10;99.90;;;;;;4960411;29;20486;-52
2022/01/31 12:40:41;;;;;;;15.17;3.60;;;7.00;99.90;;;;;;4960255;29;20436;-54
2022/01/31 12:43:24;;;;;;;16.30;3.73;;;7.00;99.90;;;;;;4960280;29;20513;-55
2022/01/31 12:46:17;;;;;;;11.30;3.80;;;7.10;99.90;;;;;;4960021;29;20419;-53
2022/01/31 12:49:00;;;;;;;22.03;4.43;;;7.10;99.90;;;;;;4960382;29;20870;-56
2022/01/31 12:51:27;;;;;;;7.90;3.97;;;7.10;99.90;;;;;;4959231;29;20487;-55
2022/01/31 12:53:56;;;;;;;10.23;4.33;;;7.20;99.90;;;;;;4960046;29;20470;-55
2022/01/31 12:56:29;;;;;;;16.83;4.17;;;7.20;99.90;;;;;;4959773;29;20432;-56
2022/01/31 12:59:03;;;;;;;5.87;3.63;;;7.20;99.90;;;;;;4960418;29;20436;-57
2022/01/31 13:01:31;;;;;;;9.03;3.77;;;7.20;99.90;;;;;;4960182;29;20434;-52
2022/01/31 13:04:01;;;;;;;13.50;5.27;;;7.20;99.90;;;;;;4944755;29;20474;-54
2022/01/31 13:06:36;;;;;;;8.63;3.13;;;7.10;99.90;;;;;;4945680;29;20478;-55
2022/01/31 13:09:12;;;;;;;12.97;4.50;;;7.10;99.90;;;;;;4949666;29;20548;-55
2022/01/31 13:11:41;;;;;;;7.20;3.37;;;7.20;99.90;;;;;;4973520;29;20477;-50
2022/01/31 13:14:17;;;;;;;12.33;3.67;;;7.20;99.90;;;;;;4961152;29;20442;-57
2022/01/31 13:17:00;;;;;;;13.27;4.33;;;7.20;99.90;;;;;;4978398;29;20445;-54